Time;durP1;ratioP1;P1;durP2;ratioP2;P2;SDS_P1;SDS_P2;PMS_P1;PMS_P2;Temp;Humidity;BMP_temperature;BMP_pressure;BME280_temperature;BME280_humidity;BME280_pressure;Samples;Min_cycle;Max_cycle;Signal;HPM_P1;HPM_P2
2024/02/12 00:01:59;;;;;;;;;;;;;;;7.20;100.00;94614.16;107881;1284;22590;-85
2024/02/12 00:04:29;;;;;;;;;;;;;;;7.16;100.00;94620.48;107914;1282;22567;-86
2024/02/12 00:06:58;;;;;;;;;;;;;;;7.14;100.00;94625.72;107930;1283;23162;-85
2024/02/12 00:09:24;;;;;;;;;;;;;;;7.15;100.00;94623.77;107980;1289;22529;-85
2024/02/12 00:11:51;;;;;;;;;;;;;;;7.15;100.00;94631.01;107965;1289;22512;-85
2024/02/12 00:14:17;;;;;;;;;;;;;;;7.13;100.00;94630.25;107948;1289;22560;-86
2024/02/12 00:16:45;;;;;;;;;;;;;;;7.10;100.00;94635.20;107968;1289;22584;-86
2024/02/12 00:19:11;;;;;;;;;;;;;;;7.12;100.00;94642.10;108024;1283;22538;-85
2024/02/12 00:21:39;;;;;;;;;;;;;;;7.12;100.00;94640.48;107981;1289;24367;-85
2024/02/12 00:24:06;;;;;;;;;;;;;;;7.12;100.00;94642.70;107951;1289;22567;-86
2024/02/12 00:26:33;;;;;;;;;;;;;;;7.14;100.00;94644.55;107938;1289;25305;-85
2024/02/12 00:28:59;;;;;;;;;;;;;;;7.15;100.00;94646.43;107879;1283;22526;-85
2024/02/12 00:31:26;;;;;;;;;;;;;;;7.17;100.00;94645.40;108023;1284;22573;-86
2024/02/12 00:33:54;;;;;;;;;;;;;;;7.16;100.00;94653.27;107948;1289;22545;-85
2024/02/12 00:36:21;;;;;;;;;;;;;;;7.17;100.00;94653.99;107938;1289;22540;-86
2024/02/12 00:38:47;;;;;;;;;;;;;;;7.18;100.00;94653.55;107932;1289;22522;-86
2024/02/12 00:41:14;;;;;;;;;;;;;;;7.20;100.00;94655.33;107998;1289;25483;-86
2024/02/12 00:43:44;;;;;;;;;;;;;;;7.21;100.00;94657.20;107860;1289;25340;-85
2024/02/12 00:46:15;;;;;;;;;;;;;;;7.20;100.00;94660.94;107911;1283;22539;-86
2024/02/12 00:48:45;;;;;;;;;;;;;;;7.21;100.00;94662.36;107841;1289;25321;-85
2024/02/12 00:51:12;;;;;;;;;;;;;;;7.21;100.00;94664.63;107940;1284;22518;-86
2024/02/12 00:53:40;;;;;;;;;;;;;;;7.23;100.00;94670.06;107944;1289;22541;-86
2024/02/12 00:56:06;;;;;;;;;;;;;;;7.25;100.00;94671.05;109308;1286;22961;-86
2024/02/12 00:58:33;;;;;;;;;;;;;;;7.27;100.00;94668.77;109641;1289;22428;-86
2024/02/12 01:01:00;;;;;;;;;;;;;;;7.27;100.00;94667.14;109284;1283;22427;-87
2024/02/12 01:03:26;;;;;;;;;;;;;;;7.30;100.00;94669.63;109628;1283;22412;-86
2024/02/12 01:05:53;;;;;;;;;;;;;;;7.33;100.00;94668.93;109458;1289;23156;-86
2024/02/12 01:08:20;;;;;;;;;;;;;;;7.36;100.00;94671.83;109464;1289;22417;-87
2024/02/12 01:10:47;;;;;;;;;;;;;;;7.38;100.00;94670.82;109413;1289;22419;-86
2024/02/12 01:13:13;;;;;;;;;;;;;;;7.42;100.00;94668.45;109416;1289;22431;-87
2024/02/12 01:15:40;;;;;;;;;;;;;;;7.46;100.00;94669.23;109475;1280;23148;-86
2024/02/12 01:18:07;;;;;;;;;;;;;;;7.48;100.00;94668.91;109195;1289;22519;-86
2024/02/12 01:20:34;;;;;;;;;;;;;;;7.47;100.00;94667.69;108134;1289;24264;-85
2024/02/12 01:23:01;;;;;;;;;;;;;;;7.43;100.00;94672.23;107935;1288;23393;-84
2024/02/12 01:25:27;;;;;;;;;;;;;;;7.41;100.00;94676.92;107957;1283;24232;-85
2024/02/12 01:27:54;;;;;;;;;;;;;;;7.41;100.00;94674.39;107967;1289;22638;-85
2024/02/12 01:30:21;;;;;;;;;;;;;;;7.41;100.00;94673.91;107963;1289;22532;-87
2024/02/12 01:32:47;;;;;;;;;;;;;;;7.39;100.00;94674.04;107972;1289;22524;-87
2024/02/12 01:35:13;;;;;;;;;;;;;;;7.36;100.00;94671.59;107976;1289;25213;-87
2024/02/12 01:37:41;;;;;;;;;;;;;;;7.34;100.00;94673.94;108041;1286;22566;-88
2024/02/12 01:40:08;;;;;;;;;;;;;;;7.32;100.00;94674.96;107944;1289;23635;-87
2024/02/12 01:42:35;;;;;;;;;;;;;;;7.30;100.00;94672.46;107913;1289;22533;-87
2024/02/12 01:45:13;;;;;;;;;;;;;;;7.30;100.00;94672.42;107953;1284;22529;-87
2024/02/12 01:47:42;;;;;;;;;;;;;;;7.30;100.00;94669.48;107941;1290;22550;-87
2024/02/12 01:50:12;;;;;;;;;;;;;;;7.26;100.00;94671.45;107989;1283;22544;-87
2024/02/12 01:52:39;;;;;;;;;;;;;;;7.22;100.00;94672.36;107974;1287;22670;-87
2024/02/12 01:55:07;;;;;;;;;;;;;;;7.20;100.00;94672.81;107916;1290;22557;-87
2024/02/12 01:57:36;;;;;;;;;;;;;;;7.19;100.00;94672.34;107955;1290;25273;-87
2024/02/12 02:00:05;;;;;;;;;;;;;;;7.18;100.00;94672.39;107880;1290;25321;-87
2024/02/12 02:02:33;;;;;;;;;;;;;;;7.18;100.00;94676.20;107970;1283;23352;-87
2024/02/12 02:05:00;;;;;;;;;;;;;;;7.17;100.00;94673.42;107827;1290;22568;-87
2024/02/12 02:07:27;;;;;;;;;;;;;;;7.12;100.00;94674.09;108002;1290;22538;-87
2024/02/12 02:09:54;;;;;;;;;;;;;;;7.08;100.00;94675.34;107952;1290;25268;-87
2024/02/12 02:12:21;;;;;;;;;;;;;;;7.04;100.00;94678.77;107857;1290;22574;-87
2024/02/12 02:14:49;;;;;;;;;;;;;;;7.02;100.00;94678.93;107960;1283;24209;-87
2024/02/12 02:17:16;;;;;;;;;;;;;;;7.01;100.00;94676.42;107955;1270;22525;-87
2024/02/12 02:19:42;;;;;;;;;;;;;;;7.01;100.00;94679.36;107967;1290;22538;-87
2024/02/12 02:22:09;;;;;;;;;;;;;;;7.00;100.00;94682.86;107948;1286;22538;-87
2024/02/12 02:24:35;;;;;;;;;;;;;;;7.01;100.00;94681.98;107998;1290;22540;-87
2024/02/12 02:27:02;;;;;;;;;;;;;;;6.99;100.00;94684.44;107931;1290;26461;-87
2024/02/12 02:29:28;;;;;;;;;;;;;;;6.97;100.00;94686.02;107824;1290;22520;-87
2024/02/12 02:31:55;;;;;;;;;;;;;;;6.98;100.00;94687.58;107971;1290;22558;-87
2024/02/12 02:34:21;;;;;;;;;;;;;;;6.99;100.00;94688.77;107951;1290;22546;-87
2024/02/12 02:36:48;;;;;;;;;;;;;;;6.99;100.00;94682.70;107917;1290;26423;-87
2024/02/12 02:39:15;;;;;;;;;;;;;;;6.99;100.00;94685.02;107908;1285;24318;-87
2024/02/12 02:41:42;;;;;;;;;;;;;;;7.00;100.00;94688.67;107901;1290;22524;-87
2024/02/12 02:44:10;;;;;;;;;;;;;;;6.99;100.00;94685.35;107909;1283;22501;-87
2024/02/12 02:46:36;;;;;;;;;;;;;;;6.97;100.00;94685.86;107904;1290;22563;-87
2024/02/12 02:49:03;;;;;;;;;;;;;;;6.96;100.00;94681.70;107934;1290;22527;-87
2024/02/12 02:51:30;;;;;;;;;;;;;;;6.94;100.00;94682.82;107824;1290;25329;-87
2024/02/12 02:53:56;;;;;;;;;;;;;;;6.92;100.00;94684.56;108012;1284;22557;-87
2024/02/12 02:56:23;;;;;;;;;;;;;;;6.93;100.00;94683.42;108040;1290;23410;-87
2024/02/12 02:58:49;;;;;;;;;;;;;;;6.93;100.00;94685.73;107950;1290;22546;-87
2024/02/12 03:01:19;;;;;;;;;;;;;;;6.91;100.00;94684.41;107951;1289;22567;-87
2024/02/12 03:03:48;;;;;;;;;;;;;;;6.90;100.00;94687.36;107965;1290;22532;-87
2024/02/12 03:06:14;;;;;;;;;;;;;;;6.88;100.00;94693.75;107994;1290;22528;-87
2024/02/12 03:08:42;;;;;;;;;;;;;;;6.88;100.00;94693.60;107944;1290;22571;-87
2024/02/12 03:11:08;;;;;;;;;;;;;;;6.86;100.00;94692.89;107922;1290;22517;-87
2024/02/12 03:13:37;;;;;;;;;;;;;;;6.85;100.00;94695.08;108012;1290;25615;-87
2024/02/12 03:16:03;;;;;;;;;;;;;;;6.85;100.00;94694.08;107964;1283;25429;-87
2024/02/12 03:18:30;;;;;;;;;;;;;;;6.86;100.00;94695.31;107920;1290;23247;-87
2024/02/12 03:20:56;;;;;;;;;;;;;;;6.85;100.00;94699.64;107972;1287;22935;-87
2024/02/12 03:23:23;;;;;;;;;;;;;;;6.84;100.00;94704.69;107941;1290;22517;-87
2024/02/12 03:25:49;;;;;;;;;;;;;;;6.84;100.00;94707.04;107968;1290;22570;-87
2024/02/12 03:28:16;;;;;;;;;;;;;;;6.86;100.00;94710.45;107990;1289;22522;-88
2024/02/12 03:30:42;;;;;;;;;;;;;;;6.86;100.00;94714.17;107979;1290;22545;-87
2024/02/12 03:33:08;;;;;;;;;;;;;;;6.87;100.00;94716.80;107948;1283;22521;-87
2024/02/12 03:35:35;;;;;;;;;;;;;;;6.88;100.00;94722.48;107890;1290;22555;-87
2024/02/12 03:38:01;;;;;;;;;;;;;;;6.89;100.00;94726.40;107945;1290;23259;-86
2024/02/12 03:40:28;;;;;;;;;;;;;;;6.88;100.00;94728.67;107982;1290;22542;-87
2024/02/12 03:42:54;;;;;;;;;;;;;;;6.90;100.00;94729.70;107987;1286;22559;-87
2024/02/12 03:45:22;;;;;;;;;;;;;;;6.90;100.00;94734.15;107969;1290;22523;-87
2024/02/12 03:47:49;;;;;;;;;;;;;;;6.89;100.00;94738.67;107948;1290;22538;-87
2024/02/12 04:01:17;;;;;;;;;;;;;;;6.93;100.00;94748.56;107978;1284;22557;-87
2024/02/12 04:03:43;;;;;;;;;;;;;;;6.90;100.00;94749.25;107932;1283;25358;-87
2024/02/12 04:06:12;;;;;;;;;;;;;;;6.87;100.00;94754.33;107967;1284;22495;-88
2024/02/12 04:08:41;;;;;;;;;;;;;;;6.85;100.00;94754.02;107974;1283;22543;-87
2024/02/12 04:11:08;;;;;;;;;;;;;;;6.84;100.00;94752.48;107795;1286;22602;-87
2024/02/12 04:13:36;;;;;;;;;;;;;;;6.85;100.00;94753.06;107959;1283;22624;-87
2024/02/12 04:16:09;;;;;;;;;;;;;;;6.84;100.00;94750.31;107955;1290;22544;-87
2024/02/12 04:18:35;;;;;;;;;;;;;;;6.82;100.00;94755.30;107903;1286;22589;-87
2024/02/12 04:21:08;;;;;;;;;;;;;;;6.82;100.00;94758.91;107925;1290;24542;-87
2024/02/12 04:23:37;;;;;;;;;;;;;;;6.84;100.00;94763.63;107830;1283;23097;-87
2024/02/12 04:26:06;;;;;;;;;;;;;;;6.87;100.00;94764.98;107916;1290;22530;-88
2024/02/12 04:28:33;;;;;;;;;;;;;;;6.90;100.00;94769.93;107913;1290;22532;-87
2024/02/12 04:30:59;;;;;;;;;;;;;;;6.91;100.00;94770.26;107938;1290;22569;-87
2024/02/12 04:33:26;;;;;;;;;;;;;;;6.90;100.00;94772.12;107824;1290;24307;-86
2024/02/12 04:35:54;;;;;;;;;;;;;;;6.88;100.00;94773.44;107902;1290;22546;-87
2024/02/12 04:38:21;;;;;;;;;;;;;;;6.87;100.00;94778.76;107952;1290;22521;-87
2024/02/12 04:40:49;;;;;;;;;;;;;;;6.86;100.00;94781.83;107915;1290;22640;-87
2024/02/12 04:43:16;;;;;;;;;;;;;;;6.85;100.00;94780.23;107944;1290;24306;-87
2024/02/12 04:45:43;;;;;;;;;;;;;;;6.86;100.00;94789.60;107979;1290;22519;-87
2024/02/12 04:48:13;;;;;;;;;;;;;;;6.85;100.00;94789.68;107906;1290;24195;-87
2024/02/12 04:50:39;;;;;;;;;;;;;;;6.84;100.00;94785.22;107980;1286;22639;-87
2024/02/12 04:53:07;;;;;;;;;;;;;;;6.83;100.00;94789.10;107927;1290;24504;-87
2024/02/12 04:55:33;;;;;;;;;;;;;;;6.83;100.00;94788.40;107950;1290;22545;-88
2024/02/12 04:58:00;;;;;;;;;;;;;;;6.85;100.00;94786.27;107927;1286;22539;-87
2024/02/12 05:00:27;;;;;;;;;;;;;;;6.85;100.00;94785.52;107914;1290;22546;-87
2024/02/12 05:02:53;;;;;;;;;;;;;;;6.86;100.00;94790.28;107959;1285;22556;-87
2024/02/12 05:05:20;;;;;;;;;;;;;;;6.87;100.00;94789.17;107912;1286;25087;-87
2024/02/12 05:07:47;;;;;;;;;;;;;;;6.86;100.00;94788.02;108006;1290;23079;-88
2024/02/12 05:10:13;;;;;;;;;;;;;;;6.84;100.00;94784.36;107987;1286;24299;-87
2024/02/12 05:12:40;;;;;;;;;;;;;;;6.84;100.00;94788.45;107942;1290;22584;-87
2024/02/12 05:15:09;;;;;;;;;;;;;;;6.85;100.00;94787.90;107806;1290;22607;-88
2024/02/12 05:23:26;;;;;;;;;;;;;;;6.83;100.00;94795.76;107419;1296;22545;-87
2024/02/12 05:25:52;;;;;;;;;;;;;;;6.83;100.00;94799.24;107703;1290;23344;-87
2024/02/12 05:28:18;;;;;;;;;;;;;;;6.83;100.00;94799.77;107958;1290;22541;-88
2024/02/12 05:30:46;;;;;;;;;;;;;;;6.84;100.00;94802.95;107888;1290;22509;-87
2024/02/12 05:33:12;;;;;;;;;;;;;;;6.82;100.00;94805.38;108037;1280;22551;-87
2024/02/12 05:35:40;;;;;;;;;;;;;;;6.82;100.00;94805.89;107964;1290;22531;-87
2024/02/12 05:38:06;;;;;;;;;;;;;;;6.82;100.00;94810.43;107875;1290;23222;-87
2024/02/12 05:40:33;;;;;;;;;;;;;;;6.81;100.00;94810.71;107869;1290;22952;-87
2024/02/12 05:42:59;;;;;;;;;;;;;;;6.82;100.00;94810.44;107804;1289;22521;-87
2024/02/12 05:45:27;;;;;;;;;;;;;;;6.80;100.00;94816.78;107927;1283;22533;-88
2024/02/12 05:47:54;;;;;;;;;;;;;;;6.80;100.00;94820.08;107897;1286;24176;-87
2024/02/12 05:50:20;;;;;;;;;;;;;;;6.80;100.00;94823.02;107915;1284;26593;-87
2024/02/12 05:52:46;;;;;;;;;;;;;;;6.78;100.00;94823.48;107944;1290;22576;-87
2024/02/12 05:55:13;;;;;;;;;;;;;;;6.77;100.00;94827.75;107984;1282;23803;-87
2024/02/12 05:57:39;;;;;;;;;;;;;;;6.77;100.00;94831.16;107952;1280;23285;-87
2024/02/12 06:00:06;;;;;;;;;;;;;;;6.78;100.00;94836.33;107922;1290;22524;-88
2024/02/12 06:02:32;;;;;;;;;;;;;;;6.81;100.00;94837.08;107925;1288;23246;-87
2024/02/12 06:05:01;;;;;;;;;;;;;;;6.80;100.00;94840.26;107845;1290;22542;-87
2024/02/12 06:07:27;;;;;;;;;;;;;;;6.79;100.00;94838.15;107888;1290;24268;-86
2024/02/12 06:09:53;;;;;;;;;;;;;;;6.78;100.00;94844.30;107922;1290;22518;-87
2024/02/12 06:12:21;;;;;;;;;;;;;;;6.78;100.00;94846.89;107914;1290;26366;-87
2024/02/12 06:14:47;;;;;;;;;;;;;;;6.79;100.00;94847.84;107880;1290;24280;-87
2024/02/12 06:17:14;;;;;;;;;;;;;;;6.79;100.00;94849.71;107987;1290;22639;-87
2024/02/12 06:19:41;;;;;;;;;;;;;;;6.78;100.00;94855.42;107830;1290;22540;-87
2024/02/12 06:22:09;;;;;;;;;;;;;;;6.80;100.00;94855.90;107924;1290;23272;-87
2024/02/12 06:24:36;;;;;;;;;;;;;;;6.81;100.00;94857.73;107889;1283;25229;-87
2024/02/12 06:27:02;;;;;;;;;;;;;;;6.82;100.00;94859.60;107912;1290;22527;-87
2024/02/12 06:29:29;;;;;;;;;;;;;;;6.83;100.00;94858.69;107809;1291;25583;-87
2024/02/12 06:31:55;;;;;;;;;;;;;;;6.83;100.00;94857.10;107845;1286;22547;-87
2024/02/12 06:34:23;;;;;;;;;;;;;;;6.82;100.00;94859.44;107952;1273;25459;-87
2024/02/12 06:36:49;;;;;;;;;;;;;;;6.79;100.00;94860.15;107969;1279;23304;-87
2024/02/12 06:39:16;;;;;;;;;;;;;;;6.80;100.00;94859.60;107833;1285;22516;-87
2024/02/12 06:41:44;;;;;;;;;;;;;;;6.78;100.00;94862.38;107950;1291;22547;-88
2024/02/12 06:44:13;;;;;;;;;;;;;;;6.77;100.00;94864.25;107992;1282;22517;-87
2024/02/12 06:46:42;;;;;;;;;;;;;;;6.78;100.00;94868.61;107972;1283;22533;-87
2024/02/12 06:49:08;;;;;;;;;;;;;;;6.79;100.00;94869.65;109326;1286;22834;-85
2024/02/12 06:51:38;;;;;;;;;;;;;;;6.78;100.00;94873.18;109548;1284;22405;-86
2024/02/12 06:54:05;;;;;;;;;;;;;;;6.81;100.00;94875.45;109054;1284;27724;-83
2024/02/12 06:56:31;;;;;;;;;;;;;;;6.82;100.00;94880.09;108041;1290;23097;-83
2024/02/12 06:58:57;;;;;;;;;;;;;;;6.84;100.00;94880.48;108019;1290;24425;-83
2024/02/12 07:01:24;;;;;;;;;;;;;;;6.86;100.00;94884.80;108057;1282;22518;-85
2024/02/12 07:03:52;;;;;;;;;;;;;;;6.86;100.00;94884.89;108098;1283;23121;-84
2024/02/12 07:06:20;;;;;;;;;;;;;;;6.86;100.00;94886.91;108051;1290;22518;-85
2024/02/12 07:08:46;;;;;;;;;;;;;;;6.87;100.00;94887.32;108011;1290;22560;-85
2024/02/12 07:11:16;;;;;;;;;;;;;;;6.89;100.00;94888.95;107887;1289;22539;-84
2024/02/12 07:13:42;;;;;;;;;;;;;;;6.90;100.00;94891.98;108009;1279;24397;-84
2024/02/12 07:16:14;;;;;;;;;;;;;;;6.91;100.00;94892.56;108026;1282;24355;-85
2024/02/12 07:18:41;;;;;;;;;;;;;;;6.91;100.00;94892.76;108043;1286;22517;-84
2024/02/12 07:21:07;;;;;;;;;;;;;;;6.91;100.00;94893.36;108047;1286;24243;-84
2024/02/12 07:23:35;;;;;;;;;;;;;;;6.92;100.00;94897.56;107988;1290;22549;-85
2024/02/12 07:26:01;;;;;;;;;;;;;;;6.93;100.00;94899.67;107991;1283;22551;-84
2024/02/12 07:28:28;;;;;;;;;;;;;;;6.94;100.00;94901.77;107972;1290;22518;-84
2024/02/12 07:30:54;;;;;;;;;;;;;;;6.95;100.00;94901.23;107888;1286;22548;-84
2024/02/12 07:33:21;;;;;;;;;;;;;;;6.95;100.00;94905.71;108051;1280;23159;-84
2024/02/12 07:35:48;;;;;;;;;;;;;;;6.94;100.00;94907.70;108002;1284;22542;-85
2024/02/12 07:38:14;;;;;;;;;;;;;;;6.93;100.00;94910.20;107956;1290;22546;-85
2024/02/12 07:40:41;;;;;;;;;;;;;;;6.92;100.00;94909.73;107943;1291;22523;-85
2024/02/12 07:43:07;;;;;;;;;;;;;;;6.92;100.00;94913.06;108023;1290;22561;-84
2024/02/12 07:45:36;;;;;;;;;;;;;;;6.92;100.00;94911.75;108028;1290;22543;-85
2024/02/12 07:48:02;;;;;;;;;;;;;;;6.92;100.00;94919.10;108064;1290;22533;-84
2024/02/12 07:50:29;;;;;;;;;;;;;;;6.92;100.00;94917.52;108028;1290;24300;-85
2024/02/12 07:52:55;;;;;;;;;;;;;;;6.93;100.00;94923.83;108058;1276;22566;-85
2024/02/12 07:55:22;;;;;;;;;;;;;;;6.92;100.00;94919.90;108030;1290;25421;-85
2024/02/12 07:57:48;;;;;;;;;;;;;;;6.93;100.00;94922.44;108005;1276;22530;-84
2024/02/12 08:00:15;;;;;;;;;;;;;;;6.92;100.00;94921.77;108047;1290;24290;-84
2024/02/12 08:02:43;;;;;;;;;;;;;;;6.93;100.00;94925.10;108054;1279;23222;-84
2024/02/12 08:05:10;;;;;;;;;;;;;;;6.95;100.00;94928.20;108041;1289;22538;-84
2024/02/12 08:07:36;;;;;;;;;;;;;;;6.97;100.00;94934.52;108023;1283;22594;-84
2024/02/12 08:10:04;;;;;;;;;;;;;;;6.98;100.00;94935.23;107999;1289;22525;-84
2024/02/12 08:12:30;;;;;;;;;;;;;;;7.00;100.00;94935.89;107987;1290;25295;-85
2024/02/12 08:14:57;;;;;;;;;;;;;;;7.02;100.00;94933.84;108058;1284;22565;-84
2024/02/12 08:17:27;;;;;;;;;;;;;;;7.04;100.00;94936.34;108006;1283;22530;-85
2024/02/12 08:19:54;;;;;;;;;;;;;;;7.06;100.00;94937.65;108005;1289;25322;-84
2024/02/12 08:22:23;;;;;;;;;;;;;;;7.07;100.00;94940.12;108029;1290;22530;-84
2024/02/12 08:24:51;;;;;;;;;;;;;;;7.08;100.00;94941.67;108043;1290;22556;-85
2024/02/12 08:27:20;;;;;;;;;;;;;;;7.08;100.00;94943.89;107957;1290;23187;-84
2024/02/12 08:29:47;;;;;;;;;;;;;;;7.11;100.00;94945.05;108005;1290;25360;-85
2024/02/12 08:32:14;;;;;;;;;;;;;;;7.13;100.00;94943.62;109477;1289;22396;-85
2024/02/12 08:34:40;;;;;;;;;;;;;;;7.15;100.00;94948.48;109446;1283;22407;-85
2024/02/12 08:37:08;;;;;;;;;;;;;;;7.18;100.00;94946.27;107964;1290;22575;-85
2024/02/12 08:39:35;;;;;;;;;;;;;;;7.19;100.00;94950.92;108043;1283;22557;-85
2024/02/12 08:42:01;;;;;;;;;;;;;;;7.19;100.00;94951.05;108034;1279;22543;-85
2024/02/12 08:44:31;;;;;;;;;;;;;;;7.22;100.00;94955.42;107907;1290;22525;-85
2024/02/12 08:47:01;;;;;;;;;;;;;;;7.25;100.00;94957.65;107927;1290;22522;-84
2024/02/12 08:49:27;;;;;;;;;;;;;;;7.28;100.00;94960.03;108075;1286;22554;-85
2024/02/12 08:51:54;;;;;;;;;;;;;;;7.29;100.00;94961.42;108048;1290;25264;-85
2024/02/12 08:54:22;;;;;;;;;;;;;;;7.29;100.00;94969.29;108048;1283;22587;-84
2024/02/12 08:56:48;;;;;;;;;;;;;;;7.30;100.00;94971.09;108097;1290;23243;-85
2024/02/12 08:59:15;;;;;;;;;;;;;;;7.31;100.00;94980.10;108074;1290;22536;-85
2024/02/12 09:01:42;;;;;;;;;;;;;;;7.31;100.00;94981.77;108067;1284;25347;-85
2024/02/12 09:04:09;;;;;;;;;;;;;;;7.31;100.00;94983.33;108075;1283;22517;-85
2024/02/12 09:06:35;;;;;;;;;;;;;;;7.30;100.00;94990.41;107884;1289;22552;-85
2024/02/12 09:09:02;;;;;;;;;;;;;;;7.27;100.00;94994.17;107994;1286;22775;-85
2024/02/12 09:11:28;;;;;;;;;;;;;;;7.26;100.00;94995.05;108050;1290;23306;-85
2024/02/12 09:13:55;;;;;;;;;;;;;;;7.25;100.00;95001.52;108055;1290;22517;-84
2024/02/12 09:16:21;;;;;;;;;;;;;;;7.24;100.00;95002.00;108045;1282;22538;-84
2024/02/12 09:18:47;;;;;;;;;;;;;;;7.22;100.00;94995.45;108056;1290;22527;-85
2024/02/12 09:21:15;;;;;;;;;;;;;;;7.24;100.00;95001.17;107804;1283;309252;-87
2024/02/12 09:23:42;;;;;;;;;;;;;;;7.26;100.00;95003.00;107842;1289;22565;-86
2024/02/12 09:26:08;;;;;;;;;;;;;;;7.28;100.00;95006.81;107918;1283;23206;-86
2024/02/12 09:28:35;;;;;;;;;;;;;;;7.29;100.00;95007.94;107911;1283;22934;-87
2024/02/12 09:31:01;;;;;;;;;;;;;;;7.29;100.00;95008.25;107835;1290;22528;-86
2024/02/12 09:33:29;;;;;;;;;;;;;;;7.28;100.00;95007.86;107888;1289;25228;-86
2024/02/12 09:35:55;;;;;;;;;;;;;;;7.27;100.00;95012.93;107973;1290;25243;-86
2024/02/12 09:38:22;;;;;;;;;;;;;;;7.28;100.00;95015.29;107865;1290;24397;-87
2024/02/12 09:40:49;;;;;;;;;;;;;;;7.28;100.00;95018.86;107925;1290;23073;-86
2024/02/12 09:43:15;;;;;;;;;;;;;;;7.29;100.00;95016.91;107954;1283;22561;-87
2024/02/12 09:45:43;;;;;;;;;;;;;;;7.29;100.00;95020.64;107843;1280;22560;-86
2024/02/12 09:48:12;;;;;;;;;;;;;;;7.29;100.00;95022.88;107942;1290;23388;-86
2024/02/12 09:50:39;;;;;;;;;;;;;;;7.29;100.00;95029.40;107963;1290;22515;-86
2024/02/12 09:53:09;;;;;;;;;;;;;;;7.28;100.00;95035.63;107841;1290;26435;-86
2024/02/12 09:55:35;;;;;;;;;;;;;;;7.29;100.00;95037.74;108007;1283;22832;-86
2024/02/12 09:58:04;;;;;;;;;;;;;;;7.30;100.00;95041.52;107971;1283;22586;-86
2024/02/12 10:00:31;;;;;;;;;;;;;;;7.31;100.00;95039.81;107983;1283;24203;-86
2024/02/12 10:02:57;;;;;;;;;;;;;;;7.31;100.00;95045.34;107981;1283;25328;-86
2024/02/12 10:05:24;;;;;;;;;;;;;;;7.29;100.00;95041.95;107919;1290;22518;-86
2024/02/12 10:07:51;;;;;;;;;;;;;;;7.30;100.00;95042.36;107968;1283;22538;-86
2024/02/12 10:10:17;;;;;;;;;;;;;;;7.32;100.00;95040.59;107851;1290;22553;-86
2024/02/12 10:12:53;;;;;;;;;;;;;;;7.33;100.00;95045.32;108001;1282;24495;-85
2024/02/12 10:15:19;;;;;;;;;;;;;;;7.32;100.00;95043.08;107888;1290;24221;-86
2024/02/12 10:17:49;;;;;;;;;;;;;;;7.32;100.00;95041.17;107936;1290;24297;-86
2024/02/12 10:20:15;;;;;;;;;;;;;;;7.33;100.00;95042.75;107929;1290;22542;-86
2024/02/12 10:22:44;;;;;;;;;;;;;;;7.33;100.00;95038.41;107901;1279;22610;-85
2024/02/12 10:25:11;;;;;;;;;;;;;;;7.36;100.00;95041.12;107911;1290;22517;-86
2024/02/12 10:27:38;;;;;;;;;;;;;;;7.39;100.00;95037.55;107942;1290;22517;-86
2024/02/12 10:30:08;;;;;;;;;;;;;;;7.42;100.00;95035.45;107862;1290;22558;-85
2024/02/12 10:32:35;;;;;;;;;;;;;;;7.45;100.00;95034.98;107929;1289;22536;-86
2024/02/12 10:35:01;;;;;;;;;;;;;;;7.45;100.00;95040.58;107878;1290;22525;-86
2024/02/12 10:37:28;;;;;;;;;;;;;;;7.44;100.00;95038.63;107996;1290;22540;-86
2024/02/12 10:39:55;;;;;;;;;;;;;;;7.43;100.00;95038.42;107999;1290;22603;-86
2024/02/12 10:42:25;;;;;;;;;;;;;;;7.44;100.00;95039.74;107925;1289;25223;-86
2024/02/12 10:44:53;;;;;;;;;;;;;;;7.44;100.00;95043.05;107933;1285;22537;-86
2024/02/12 10:47:21;;;;;;;;;;;;;;;7.42;100.00;95042.71;107985;1283;23266;-86
2024/02/12 10:49:49;;;;;;;;;;;;;;;7.41;100.00;95039.30;107879;1283;22544;-86
2024/02/12 10:52:17;;;;;;;;;;;;;;;7.42;100.00;95045.02;107993;1290;22552;-86
2024/02/12 10:54:43;;;;;;;;;;;;;;;7.43;100.00;95046.23;107932;1288;22524;-86
2024/02/12 10:57:11;;;;;;;;;;;;;;;7.42;100.00;95046.93;107940;1290;22513;-85
2024/02/12 10:59:38;;;;;;;;;;;;;;;7.40;100.00;95045.90;107980;1286;23234;-86
2024/02/12 11:02:08;;;;;;;;;;;;;;;7.42;100.00;95045.46;107938;1289;23248;-86
2024/02/12 11:04:35;;;;;;;;;;;;;;;7.45;100.00;95039.10;107899;1280;22533;-85
2024/02/12 11:07:09;;;;;;;;;;;;;;;7.46;100.00;95040.45;107813;1290;22566;-85
2024/02/12 11:09:35;;;;;;;;;;;;;;;7.48;100.00;95040.59;107897;1289;22577;-86
2024/02/12 11:12:03;;;;;;;;;;;;;;;7.50;100.00;95042.89;107884;1283;22540;-86
2024/02/12 11:14:33;;;;;;;;;;;;;;;7.53;100.00;95040.17;107917;1286;22521;-86
2024/02/12 11:17:00;;;;;;;;;;;;;;;7.57;100.00;95041.57;107844;1290;22520;-86
2024/02/12 11:19:27;;;;;;;;;;;;;;;7.60;100.00;95042.25;107949;1290;25325;-86
2024/02/12 11:21:54;;;;;;;;;;;;;;;7.63;100.00;95046.08;107941;1284;22528;-86
2024/02/12 11:24:21;;;;;;;;;;;;;;;7.64;100.00;95043.24;107920;1290;22523;-86
2024/02/12 11:26:51;;;;;;;;;;;;;;;7.63;100.00;95042.45;107940;1283;22587;-86
2024/02/12 11:29:17;;;;;;;;;;;;;;;7.62;100.00;95042.65;107826;1283;25400;-86
2024/02/12 11:31:44;;;;;;;;;;;;;;;7.63;100.00;95043.41;107853;1286;22520;-86
2024/02/12 11:34:12;;;;;;;;;;;;;;;7.64;100.00;95046.16;107900;1286;22528;-86
2024/02/12 11:36:38;;;;;;;;;;;;;;;7.66;100.00;95049.91;109450;1290;22420;-87
2024/02/12 11:39:08;;;;;;;;;;;;;;;7.69;100.00;95049.64;109476;1283;22406;-87
2024/02/12 11:41:35;;;;;;;;;;;;;;;7.73;100.00;95047.73;109455;1283;22412;-87
2024/02/12 11:44:05;;;;;;;;;;;;;;;7.78;100.00;95051.75;109387;1290;23079;-87
2024/02/12 11:46:33;;;;;;;;;;;;;;;7.82;100.00;95053.56;108889;1290;22543;-86
2024/02/12 11:49:06;;;;;;;;;;;;;;;7.82;100.00;95051.77;107989;1283;22521;-86
2024/02/12 11:51:34;;;;;;;;;;;;;;;7.83;100.00;95050.30;108030;1290;25371;-86
2024/02/12 11:54:04;;;;;;;;;;;;;;;7.83;100.00;95055.23;107854;1287;22539;-86
2024/02/12 11:56:31;;;;;;;;;;;;;;;7.84;100.00;95053.92;107895;1290;23371;-86
2024/02/12 11:58:57;;;;;;;;;;;;;;;7.83;100.00;95051.98;107872;1286;26793;-86
2024/02/12 12:01:24;;;;;;;;;;;;;;;7.83;100.00;95053.48;107914;1283;22735;-86
2024/02/12 12:03:52;;;;;;;;;;;;;;;7.85;100.00;95050.34;107937;1283;23233;-86
2024/02/12 12:06:18;;;;;;;;;;;;;;;7.84;100.00;95051.34;107827;1290;22529;-86
2024/02/12 12:08:48;;;;;;;;;;;;;;;7.84;100.00;95055.16;107900;1277;23243;-86
2024/02/12 12:11:19;;;;;;;;;;;;;;;7.85;100.00;95052.56;107925;1290;22521;-86
2024/02/12 12:13:46;;;;;;;;;;;;;;;7.85;100.00;95058.85;107882;1290;22547;-86
2024/02/12 12:16:13;;;;;;;;;;;;;;;7.86;100.00;95056.67;107967;1286;22517;-86
2024/02/12 12:18:40;;;;;;;;;;;;;;;7.86;100.00;95059.49;107919;1288;22525;-86
2024/02/12 12:21:08;;;;;;;;;;;;;;;7.87;100.00;95052.89;107846;1291;22917;-86
2024/02/12 12:23:35;;;;;;;;;;;;;;;7.86;100.00;95052.14;107919;1287;22558;-86
2024/02/12 12:26:01;;;;;;;;;;;;;;;7.86;100.00;95051.62;107894;1291;22542;-86
2024/02/12 12:28:27;;;;;;;;;;;;;;;7.86;100.00;95051.58;107963;1283;22511;-86
2024/02/12 12:30:55;;;;;;;;;;;;;;;7.89;100.00;95054.88;107934;1289;25352;-86
2024/02/12 12:33:21;;;;;;;;;;;;;;;7.91;100.00;95054.91;107952;1283;23124;-86
2024/02/12 12:35:48;;;;;;;;;;;;;;;7.94;100.00;95054.76;107863;1285;22531;-86
2024/02/12 12:38:14;;;;;;;;;;;;;;;7.98;100.00;95054.41;107929;1283;22534;-86
2024/02/12 12:40:42;;;;;;;;;;;;;;;8.00;100.00;95055.92;107950;1290;22545;-86
2024/02/12 12:43:09;;;;;;;;;;;;;;;8.04;100.00;95055.49;107940;1290;23120;-86
2024/02/12 12:45:37;;;;;;;;;;;;;;;8.08;100.00;95055.30;107892;1286;22548;-86
2024/02/12 12:48:04;;;;;;;;;;;;;;;8.14;100.00;95055.97;107944;1283;23231;-86
2024/02/12 12:50:31;;;;;;;;;;;;;;;8.16;100.00;95058.61;107957;1280;22527;-86
2024/02/12 12:52:57;;;;;;;;;;;;;;;8.17;100.00;95055.18;107992;1290;24218;-86